sensor_id;sensor_type;location;lat;lon;timestamp;pressure;altitude;pressure_sealevel;temperature
60936;BMP280;46804;51.786;19.520;2022-08-01T00:03:50;98179.56;;;13.68
60936;BMP280;46804;51.786;19.520;2022-08-01T00:07:50;98183.84;;;13.64
60936;BMP280;46804;51.786;19.520;2022-08-01T00:11:51;98184.97;;;13.58
60936;BMP280;46804;51.786;19.520;2022-08-01T00:15:51;98187.69;;;13.54
60936;BMP280;46804;51.786;19.520;2022-08-01T00:19:52;98180.72;;;13.53
60936;BMP280;46804;51.786;19.520;2022-08-01T00:23:53;98182.66;;;13.47
60936;BMP280;46804;51.786;19.520;2022-08-01T00:27:53;98173.31;;;13.45
60936;BMP280;46804;51.786;19.520;2022-08-01T00:31:54;98177.03;;;13.44
60936;BMP280;46804;51.786;19.520;2022-08-01T00:35:55;98182.13;;;13.45
60936;BMP280;46804;51.786;19.520;2022-08-01T00:39:55;98184.28;;;13.43
60936;BMP280;46804;51.786;19.520;2022-08-01T00:43:56;98184.78;;;13.45
60936;BMP280;46804;51.786;19.520;2022-08-01T00:47:57;98178.34;;;13.46
60936;BMP280;46804;51.786;19.520;2022-08-01T00:51:57;98183.69;;;13.46
60936;BMP280;46804;51.786;19.520;2022-08-01T00:56:01;98180.53;;;13.44
60936;BMP280;46804;51.786;19.520;2022-08-01T01:00:03;98182.16;;;13.40
60936;BMP280;46804;51.786;19.520;2022-08-01T01:04:04;98181.66;;;13.38
60936;BMP280;46804;51.786;19.520;2022-08-01T01:08:16;98185.63;;;13.41
60936;BMP280;46804;51.786;19.520;2022-08-01T01:16:55;98179.31;;;13.22
60936;BMP280;46804;51.786;19.520;2022-08-01T01:25:22;98183.13;;;13.16
60936;BMP280;46804;51.786;19.520;2022-08-01T01:29:38;98178.56;;;13.17
60936;BMP280;46804;51.786;19.520;2022-08-01T01:33:40;98188.47;;;13.16
60936;BMP280;46804;51.786;19.520;2022-08-01T01:37:41;98173.28;;;13.07
60936;BMP280;46804;51.786;19.520;2022-08-01T01:41:45;98177.91;;;12.96
60936;BMP280;46804;51.786;19.520;2022-08-01T01:45:47;98178.44;;;12.93
60936;BMP280;46804;51.786;19.520;2022-08-01T01:49:49;98181.66;;;12.90
60936;BMP280;46804;51.786;19.520;2022-08-01T01:53:53;98182.44;;;12.91
60936;BMP280;46804;51.786;19.520;2022-08-01T01:57:55;98186.72;;;12.87
60936;BMP280;46804;51.786;19.520;2022-08-01T02:01:58;98183.00;;;12.83
60936;BMP280;46804;51.786;19.520;2022-08-01T02:06:00;98178.22;;;12.80
60936;BMP280;46804;51.786;19.520;2022-08-01T02:10:03;98180.63;;;12.82
60936;BMP280;46804;51.786;19.520;2022-08-01T02:14:05;98183.84;;;12.79
60936;BMP280;46804;51.786;19.520;2022-08-01T02:18:08;98167.81;;;12.74
60936;BMP280;46804;51.786;19.520;2022-08-01T02:22:18;98168.63;;;12.69
60936;BMP280;46804;51.786;19.520;2022-08-01T02:26:22;98166.78;;;12.65
60936;BMP280;46804;51.786;19.520;2022-08-01T02:30:25;98170.53;;;12.59
60936;BMP280;46804;51.786;19.520;2022-08-01T02:34:28;98170.03;;;12.52
60936;BMP280;46804;51.786;19.520;2022-08-01T02:38:34;98167.41;;;12.47
60936;BMP280;46804;51.786;19.520;2022-08-01T02:42:37;98164.19;;;12.45
60936;BMP280;46804;51.786;19.520;2022-08-01T02:46:52;98174.91;;;12.40
60936;BMP280;46804;51.786;19.520;2022-08-01T02:50:57;98176.78;;;12.40
60936;BMP280;46804;51.786;19.520;2022-08-01T02:54:59;98170.09;;;12.37
60936;BMP280;46804;51.786;19.520;2022-08-01T02:59:03;98174.63;;;12.37
60936;BMP280;46804;51.786;19.520;2022-08-01T03:03:06;98170.38;;;12.36
60936;BMP280;46804;51.786;19.520;2022-08-01T03:07:08;98165.31;;;12.34
60936;BMP280;46804;51.786;19.520;2022-08-01T03:11:11;98169.84;;;12.34
60936;BMP280;46804;51.786;19.520;2022-08-01T03:15:13;98170.09;;;12.37
60936;BMP280;46804;51.786;19.520;2022-08-01T03:19:16;98178.09;;;12.37
60936;BMP280;46804;51.786;19.520;2022-08-01T03:23:18;98168.75;;;12.35
60936;BMP280;46804;51.786;19.520;2022-08-01T03:27:22;98172.75;;;12.37
60936;BMP280;46804;51.786;19.520;2022-08-01T03:31:25;98172.75;;;12.37
60936;BMP280;46804;51.786;19.520;2022-08-01T03:35:30;98176.22;;;12.43
60936;BMP280;46804;51.786;19.520;2022-08-01T03:39:41;98169.50;;;12.50
60936;BMP280;46804;51.786;19.520;2022-08-01T03:43:52;98179.38;;;12.54
60936;BMP280;46804;51.786;19.520;2022-08-01T03:47:59;98176.16;;;12.62
60936;BMP280;46804;51.786;19.520;2022-08-01T03:52:02;98181.44;;;12.72
60936;BMP280;46804;51.786;19.520;2022-08-01T03:56:06;98173.44;;;12.77
60936;BMP280;46804;51.786;19.520;2022-08-01T04:00:09;98179.03;;;12.86
60936;BMP280;46804;51.786;19.520;2022-08-01T04:04:10;98182.72;;;12.94
60936;BMP280;46804;51.786;19.520;2022-08-01T04:08:11;98184.81;;;12.97
60936;BMP280;46804;51.786;19.520;2022-08-01T04:12:11;98186.63;;;13.07
60936;BMP280;46804;51.786;19.520;2022-08-01T04:16:13;98191.72;;;13.08
60936;BMP280;46804;51.786;19.520;2022-08-01T04:20:14;98197.28;;;13.17
60936;BMP280;46804;51.786;19.520;2022-08-01T04:24:17;98206.88;;;13.23
60936;BMP280;46804;51.786;19.520;2022-08-01T04:28:20;98207.34;;;13.29
60936;BMP280;46804;51.786;19.520;2022-08-01T04:32:22;98202.19;;;13.43
60936;BMP280;46804;51.786;19.520;2022-08-01T04:36:24;98197.31;;;13.50
60936;BMP280;46804;51.786;19.520;2022-08-01T04:40:26;98201.25;;;13.62
60936;BMP280;46804;51.786;19.520;2022-08-01T04:44:26;98207.56;;;13.76
60936;BMP280;46804;51.786;19.520;2022-08-01T04:48:28;98193.53;;;13.89
60936;BMP280;46804;51.786;19.520;2022-08-01T04:52:37;98200.16;;;13.96
60936;BMP280;46804;51.786;19.520;2022-08-01T04:56:38;98205.47;;;14.06
60936;BMP280;46804;51.786;19.520;2022-08-01T05:00:38;98206.78;;;14.08
60936;BMP280;46804;51.786;19.520;2022-08-01T05:04:40;98202.66;;;14.21
60936;BMP280;46804;51.786;19.520;2022-08-01T05:08:41;98199.00;;;14.35
60936;BMP280;46804;51.786;19.520;2022-08-01T05:12:41;98209.03;;;14.48
60936;BMP280;46804;51.786;19.520;2022-08-01T05:16:42;98200.84;;;14.62
60936;BMP280;46804;51.786;19.520;2022-08-01T05:20:42;98201.22;;;14.74
60936;BMP280;46804;51.786;19.520;2022-08-01T05:24:43;98203.53;;;14.86
60936;BMP280;46804;51.786;19.520;2022-08-01T05:28:44;98205.00;;;14.96
60936;BMP280;46804;51.786;19.520;2022-08-01T05:32:44;98207.78;;;15.10
60936;BMP280;46804;51.786;19.520;2022-08-01T05:36:45;98200.13;;;15.22
60936;BMP280;46804;51.786;19.520;2022-08-01T05:40:46;98200.72;;;15.37
60936;BMP280;46804;51.786;19.520;2022-08-01T05:44:47;98208.81;;;15.50
60936;BMP280;46804;51.786;19.520;2022-08-01T05:48:47;98210.91;;;15.71
60936;BMP280;46804;51.786;19.520;2022-08-01T05:52:48;98194.00;;;15.89
60936;BMP280;46804;51.786;19.520;2022-08-01T05:56:49;98202.19;;;16.11
60936;BMP280;46804;51.786;19.520;2022-08-01T06:00:49;98205.16;;;16.28
60936;BMP280;46804;51.786;19.520;2022-08-01T06:04:50;98210.78;;;16.44
60936;BMP280;46804;51.786;19.520;2022-08-01T06:08:51;98201.94;;;16.70
60936;BMP280;46804;51.786;19.520;2022-08-01T06:12:52;98206.50;;;16.83
60936;BMP280;46804;51.786;19.520;2022-08-01T06:16:52;98206.13;;;17.03
60936;BMP280;46804;51.786;19.520;2022-08-01T06:20:53;98213.22;;;17.47
60936;BMP280;46804;51.786;19.520;2022-08-01T06:24:53;98208.44;;;17.79
60936;BMP280;46804;51.786;19.520;2022-08-01T06:28:54;98208.06;;;18.16
60936;BMP280;46804;51.786;19.520;2022-08-01T06:32:54;98224.06;;;18.64
60936;BMP280;46804;51.786;19.520;2022-08-01T06:37:00;98224.84;;;19.03
60936;BMP280;46804;51.786;19.520;2022-08-01T06:41:00;98220.34;;;19.37
60936;BMP280;46804;51.786;19.520;2022-08-01T06:45:03;98166.38;;;19.37
60936;BMP280;46804;51.786;19.520;2022-08-01T06:49:04;98217.19;;;19.77
60936;BMP280;46804;51.786;19.520;2022-08-01T06:53:05;98241.84;;;20.17
60936;BMP280;46804;51.786;19.520;2022-08-01T06:57:05;98223.16;;;20.66
60936;BMP280;46804;51.786;19.520;2022-08-01T07:01:06;98106.84;;;21.03
60936;BMP280;46804;51.786;19.520;2022-08-01T07:05:07;98184.16;;;21.41
60936;BMP280;46804;51.786;19.520;2022-08-01T07:09:09;98141.25;;;21.51
60936;BMP280;46804;51.786;19.520;2022-08-01T07:13:10;98054.31;;;22.09
60936;BMP280;46804;51.786;19.520;2022-08-01T07:17:12;97994.75;;;22.44
60936;BMP280;46804;51.786;19.520;2022-08-01T07:21:13;97998.72;;;22.35
60936;BMP280;46804;51.786;19.520;2022-08-01T07:25:13;98052.13;;;22.93
60936;BMP280;46804;51.786;19.520;2022-08-01T07:29:14;98044.59;;;23.26
60936;BMP280;46804;51.786;19.520;2022-08-01T07:33:15;97948.31;;;23.78
60936;BMP280;46804;51.786;19.520;2022-08-01T07:37:16;98007.06;;;23.70
60936;BMP280;46804;51.786;19.520;2022-08-01T07:41:16;97893.09;;;24.72
60936;BMP280;46804;51.786;19.520;2022-08-01T07:45:17;97737.34;;;24.75
60936;BMP280;46804;51.786;19.520;2022-08-01T07:49:18;97670.34;;;25.12
60936;BMP280;46804;51.786;19.520;2022-08-01T07:53:18;97652.88;;;25.64
60936;BMP280;46804;51.786;19.520;2022-08-01T07:57:19;97728.78;;;24.95
60936;BMP280;46804;51.786;19.520;2022-08-01T08:01:19;97776.72;;;25.95
60936;BMP280;46804;51.786;19.520;2022-08-01T08:05:21;97571.34;;;26.93
60936;BMP280;46804;51.786;19.520;2022-08-01T08:09:22;97529.78;;;27.20
60936;BMP280;46804;51.786;19.520;2022-08-01T08:13:23;97583.97;;;26.68
60936;BMP280;46804;51.786;19.520;2022-08-01T08:17:24;97580.75;;;27.62
60936;BMP280;46804;51.786;19.520;2022-08-01T08:21:25;97341.16;;;28.04
60936;BMP280;46804;51.786;19.520;2022-08-01T08:25:26;97348.56;;;28.14
60936;BMP280;46804;51.786;19.520;2022-08-01T08:29:29;97355.13;;;28.51
60936;BMP280;46804;51.786;19.520;2022-08-01T08:33:32;97467.25;;;27.85
60936;BMP280;46804;51.786;19.520;2022-08-01T08:37:34;97380.94;;;28.36
60936;BMP280;46804;51.786;19.520;2022-08-01T08:41:35;97361.06;;;28.32
60936;BMP280;46804;51.786;19.520;2022-08-01T08:45:36;97791.16;;;29.10
60936;BMP280;46804;51.786;19.520;2022-08-01T08:49:37;97920.97;;;30.52
60936;BMP280;46804;51.786;19.520;2022-08-01T08:53:41;97921.94;;;31.16
60936;BMP280;46804;51.786;19.520;2022-08-01T08:57:45;98008.78;;;30.73
60936;BMP280;46804;51.786;19.520;2022-08-01T09:01:47;97992.19;;;31.28
60936;BMP280;46804;51.786;19.520;2022-08-01T09:05:48;98024.78;;;30.05
60936;BMP280;46804;51.786;19.520;2022-08-01T09:09:48;98040.13;;;30.23
60936;BMP280;46804;51.786;19.520;2022-08-01T09:18:06;98013.16;;;31.89
60936;BMP280;46804;51.786;19.520;2022-08-01T09:22:13;98041.75;;;32.06
60936;BMP280;46804;51.786;19.520;2022-08-01T09:26:16;98038.47;;;32.31
60936;BMP280;46804;51.786;19.520;2022-08-01T09:30:18;98034.53;;;32.25
60936;BMP280;46804;51.786;19.520;2022-08-01T09:34:27;98051.63;;;32.00
60936;BMP280;46804;51.786;19.520;2022-08-01T09:38:28;98044.47;;;31.07
60936;BMP280;46804;51.786;19.520;2022-08-01T09:42:29;98078.56;;;31.27
60936;BMP280;46804;51.786;19.520;2022-08-01T09:46:29;98066.84;;;30.68
60936;BMP280;46804;51.786;19.520;2022-08-01T09:50:39;98072.28;;;30.30
60936;BMP280;46804;51.786;19.520;2022-08-01T09:54:43;98081.72;;;30.53
60936;BMP280;46804;51.786;19.520;2022-08-01T09:58:52;98095.09;;;30.96
60936;BMP280;46804;51.786;19.520;2022-08-01T10:02:53;98082.66;;;32.00
60936;BMP280;46804;51.786;19.520;2022-08-01T10:07:04;98058.28;;;31.99
60936;BMP280;46804;51.786;19.520;2022-08-01T10:11:11;98028.22;;;32.32
60936;BMP280;46804;51.786;19.520;2022-08-01T10:15:14;98024.78;;;32.17
60936;BMP280;46804;51.786;19.520;2022-08-01T10:19:15;98042.38;;;32.84
60936;BMP280;46804;51.786;19.520;2022-08-01T10:23:16;98029.59;;;33.40
60936;BMP280;46804;51.786;19.520;2022-08-01T10:27:18;98043.63;;;32.76
60936;BMP280;46804;51.786;19.520;2022-08-01T10:31:19;98026.69;;;34.13
60936;BMP280;46804;51.786;19.520;2022-08-01T10:35:20;98027.09;;;33.53
60936;BMP280;46804;51.786;19.520;2022-08-01T10:39:21;98030.78;;;31.99
60936;BMP280;46804;51.786;19.520;2022-08-01T10:43:22;98021.13;;;34.43
60936;BMP280;46804;51.786;19.520;2022-08-01T10:47:45;97988.50;;;34.34
60936;BMP280;46804;51.786;19.520;2022-08-01T10:51:49;97997.03;;;33.91
60936;BMP280;46804;51.786;19.520;2022-08-01T11:00:01;97981.53;;;35.56
60936;BMP280;46804;51.786;19.520;2022-08-01T11:08:09;97984.69;;;34.96
60936;BMP280;46804;51.786;19.520;2022-08-01T11:12:13;98020.66;;;34.48
60936;BMP280;46804;51.786;19.520;2022-08-01T11:16:27;97987.19;;;34.65
60936;BMP280;46804;51.786;19.520;2022-08-01T11:20:33;98004.25;;;32.32
60936;BMP280;46804;51.786;19.520;2022-08-01T11:29:10;98036.38;;;33.98
60936;BMP280;46804;51.786;19.520;2022-08-01T11:33:12;98015.28;;;33.85
60936;BMP280;46804;51.786;19.520;2022-08-01T11:37:22;98033.09;;;34.07
60936;BMP280;46804;51.786;19.520;2022-08-01T11:41:26;98035.34;;;33.89
60936;BMP280;46804;51.786;19.520;2022-08-01T11:45:49;98018.72;;;34.19
60936;BMP280;46804;51.786;19.520;2022-08-01T11:49:50;98008.47;;;34.91
60936;BMP280;46804;51.786;19.520;2022-08-01T11:53:55;98017.00;;;34.28
60936;BMP280;46804;51.786;19.520;2022-08-01T11:58:06;98021.25;;;33.47
60936;BMP280;46804;51.786;19.520;2022-08-01T12:02:21;98023.88;;;34.43
60936;BMP280;46804;51.786;19.520;2022-08-01T12:06:28;98002.97;;;34.68
60936;BMP280;46804;51.786;19.520;2022-08-01T12:10:33;98025.38;;;33.29
60936;BMP280;46804;51.786;19.520;2022-08-01T12:14:36;98028.69;;;33.83
60936;BMP280;46804;51.786;19.520;2022-08-01T12:18:38;98029.13;;;34.37
60936;BMP280;46804;51.786;19.520;2022-08-01T12:22:41;97989.41;;;35.57
60936;BMP280;46804;51.786;19.520;2022-08-01T12:26:41;98001.59;;;33.78
60936;BMP280;46804;51.786;19.520;2022-08-01T12:30:42;98018.94;;;33.42
60936;BMP280;46804;51.786;19.520;2022-08-01T12:34:43;98002.69;;;35.27
60936;BMP280;46804;51.786;19.520;2022-08-01T12:38:43;97971.50;;;36.00
60936;BMP280;46804;51.786;19.520;2022-08-01T12:42:47;97988.66;;;34.95
60936;BMP280;46804;51.786;19.520;2022-08-01T12:46:48;97993.13;;;34.90
60936;BMP280;46804;51.786;19.520;2022-08-01T12:50:49;97985.41;;;35.00
60936;BMP280;46804;51.786;19.520;2022-08-01T12:55:08;97982.84;;;34.67
60936;BMP280;46804;51.786;19.520;2022-08-01T12:59:27;97991.31;;;35.41
60936;BMP280;46804;51.786;19.520;2022-08-01T13:03:29;98013.09;;;35.58
60936;BMP280;46804;51.786;19.520;2022-08-01T13:07:59;98001.34;;;35.73
60936;BMP280;46804;51.786;19.520;2022-08-01T13:12:08;98012.03;;;35.91
60936;BMP280;46804;51.786;19.520;2022-08-01T13:16:09;97989.47;;;35.34
60936;BMP280;46804;51.786;19.520;2022-08-01T13:20:21;98016.28;;;34.73
60936;BMP280;46804;51.786;19.520;2022-08-01T13:24:26;98012.22;;;34.32
60936;BMP280;46804;51.786;19.520;2022-08-01T13:28:27;98017.34;;;34.33
60936;BMP280;46804;51.786;19.520;2022-08-01T13:32:28;98008.06;;;33.91
60936;BMP280;46804;51.786;19.520;2022-08-01T13:36:31;98023.69;;;33.42
60936;BMP280;46804;51.786;19.520;2022-08-01T13:40:31;98030.25;;;33.84
60936;BMP280;46804;51.786;19.520;2022-08-01T13:44:32;98015.59;;;34.17
60936;BMP280;46804;51.786;19.520;2022-08-01T13:48:33;98055.22;;;33.74
60936;BMP280;46804;51.786;19.520;2022-08-01T13:52:33;98020.50;;;33.07
60936;BMP280;46804;51.786;19.520;2022-08-01T13:56:34;98017.69;;;33.10
60936;BMP280;46804;51.786;19.520;2022-08-01T14:00:35;98030.00;;;32.59
60936;BMP280;46804;51.786;19.520;2022-08-01T14:04:35;98042.00;;;32.82
60936;BMP280;46804;51.786;19.520;2022-08-01T14:08:36;98038.19;;;32.66
60936;BMP280;46804;51.786;19.520;2022-08-01T14:12:36;98031.56;;;33.03
60936;BMP280;46804;51.786;19.520;2022-08-01T14:16:37;98016.97;;;32.06
60936;BMP280;46804;51.786;19.520;2022-08-01T14:20:38;98059.78;;;32.14
60936;BMP280;46804;51.786;19.520;2022-08-01T14:24:39;98046.22;;;31.79
60936;BMP280;46804;51.786;19.520;2022-08-01T14:28:40;98053.47;;;31.21
60936;BMP280;46804;51.786;19.520;2022-08-01T14:32:40;98066.72;;;31.57
60936;BMP280;46804;51.786;19.520;2022-08-01T14:36:41;98066.78;;;31.44
60936;BMP280;46804;51.786;19.520;2022-08-01T14:40:41;98083.09;;;31.88
60936;BMP280;46804;51.786;19.520;2022-08-01T14:44:42;98062.88;;;31.27
60936;BMP280;46804;51.786;19.520;2022-08-01T14:48:43;98066.44;;;30.48
60936;BMP280;46804;51.786;19.520;2022-08-01T14:52:43;98102.88;;;30.21
60936;BMP280;46804;51.786;19.520;2022-08-01T14:56:44;98057.81;;;30.74
60936;BMP280;46804;51.786;19.520;2022-08-01T15:00:44;98083.53;;;29.87
60936;BMP280;46804;51.786;19.520;2022-08-01T15:04:47;98095.84;;;30.38
60936;BMP280;46804;51.786;19.520;2022-08-01T15:08:48;98098.56;;;30.34
60936;BMP280;46804;51.786;19.520;2022-08-01T15:12:49;98089.53;;;30.27
60936;BMP280;46804;51.786;19.520;2022-08-01T15:16:49;98098.88;;;30.05
60936;BMP280;46804;51.786;19.520;2022-08-01T15:20:50;98101.03;;;29.05
60936;BMP280;46804;51.786;19.520;2022-08-01T15:24:52;98116.06;;;28.71
60936;BMP280;46804;51.786;19.520;2022-08-01T15:28:53;98124.91;;;29.08
60936;BMP280;46804;51.786;19.520;2022-08-01T15:32:53;98109.31;;;29.08
60936;BMP280;46804;51.786;19.520;2022-08-01T15:36:54;98130.69;;;29.46
60936;BMP280;46804;51.786;19.520;2022-08-01T15:40:55;98122.94;;;29.58
60936;BMP280;46804;51.786;19.520;2022-08-01T15:44:55;98115.06;;;29.53
60936;BMP280;46804;51.786;19.520;2022-08-01T15:48:56;98121.47;;;29.14
60936;BMP280;46804;51.786;19.520;2022-08-01T15:52:57;98120.72;;;28.71
60936;BMP280;46804;51.786;19.520;2022-08-01T15:56:57;98127.94;;;28.89
60936;BMP280;46804;51.786;19.520;2022-08-01T16:00:58;98139.69;;;28.93
60936;BMP280;46804;51.786;19.520;2022-08-01T16:04:58;98123.13;;;28.76
60936;BMP280;46804;51.786;19.520;2022-08-01T16:08:59;98130.78;;;28.24
60936;BMP280;46804;51.786;19.520;2022-08-01T16:12:59;98147.38;;;28.05
60936;BMP280;46804;51.786;19.520;2022-08-01T16:17:00;98153.19;;;28.01
60936;BMP280;46804;51.786;19.520;2022-08-01T16:21:01;98140.44;;;27.53
60936;BMP280;46804;51.786;19.520;2022-08-01T16:25:03;98152.38;;;27.42
60936;BMP280;46804;51.786;19.520;2022-08-01T16:29:04;98153.41;;;27.60
60936;BMP280;46804;51.786;19.520;2022-08-01T16:33:04;98143.66;;;27.62
60936;BMP280;46804;51.786;19.520;2022-08-01T16:37:05;98162.28;;;27.53
60936;BMP280;46804;51.786;19.520;2022-08-01T16:41:05;98160.78;;;27.33
60936;BMP280;46804;51.786;19.520;2022-08-01T16:45:06;98165.03;;;27.28
60936;BMP280;46804;51.786;19.520;2022-08-01T16:49:07;98159.13;;;27.51
60936;BMP280;46804;51.786;19.520;2022-08-01T16:53:08;98163.72;;;27.44
60936;BMP280;46804;51.786;19.520;2022-08-01T16:57:08;98165.06;;;27.31
60936;BMP280;46804;51.786;19.520;2022-08-01T17:01:09;98174.16;;;27.13
60936;BMP280;46804;51.786;19.520;2022-08-01T17:05:10;98173.38;;;27.12
60936;BMP280;46804;51.786;19.520;2022-08-01T17:09:11;98190.44;;;27.06
60936;BMP280;46804;51.786;19.520;2022-08-01T17:13:11;98191.66;;;26.67
60936;BMP280;46804;51.786;19.520;2022-08-01T17:17:12;98196.56;;;26.59
60936;BMP280;46804;51.786;19.520;2022-08-01T17:21:13;98201.34;;;26.43
60936;BMP280;46804;51.786;19.520;2022-08-01T17:25:14;98197.25;;;26.33
60936;BMP280;46804;51.786;19.520;2022-08-01T17:29:15;98210.81;;;26.49
60936;BMP280;46804;51.786;19.520;2022-08-01T17:33:16;98201.06;;;26.48
60936;BMP280;46804;51.786;19.520;2022-08-01T17:37:16;98202.78;;;26.37
60936;BMP280;46804;51.786;19.520;2022-08-01T17:41:17;98200.16;;;26.22
60936;BMP280;46804;51.786;19.520;2022-08-01T17:45:17;98197.47;;;26.06
60936;BMP280;46804;51.786;19.520;2022-08-01T17:49:18;98197.97;;;26.12
60936;BMP280;46804;51.786;19.520;2022-08-01T17:53:21;98201.22;;;26.17
60936;BMP280;46804;51.786;19.520;2022-08-01T17:57:28;98211.59;;;26.12
60936;BMP280;46804;51.786;19.520;2022-08-01T18:01:28;98232.25;;;25.60
60936;BMP280;46804;51.786;19.520;2022-08-01T18:05:33;98247.41;;;25.12
60936;BMP280;46804;51.786;19.520;2022-08-01T18:09:35;98263.72;;;24.96
60936;BMP280;46804;51.786;19.520;2022-08-01T18:13:36;98264.00;;;24.49
60936;BMP280;46804;51.786;19.520;2022-08-01T18:17:36;98295.06;;;23.97
60936;BMP280;46804;51.786;19.520;2022-08-01T18:21:37;98293.63;;;23.76
60936;BMP280;46804;51.786;19.520;2022-08-01T18:25:38;98306.78;;;23.62
60936;BMP280;46804;51.786;19.520;2022-08-01T18:29:39;98320.88;;;23.32
60936;BMP280;46804;51.786;19.520;2022-08-01T18:33:40;98322.91;;;23.35
60936;BMP280;46804;51.786;19.520;2022-08-01T18:37:40;98318.28;;;23.48
60936;BMP280;46804;51.786;19.520;2022-08-01T18:41:41;98319.63;;;23.30
60936;BMP280;46804;51.786;19.520;2022-08-01T18:45:41;98323.78;;;23.04
60936;BMP280;46804;51.786;19.520;2022-08-01T18:49:42;98320.06;;;23.08
60936;BMP280;46804;51.786;19.520;2022-08-01T18:53:43;98328.16;;;22.96
60936;BMP280;46804;51.786;19.520;2022-08-01T18:57:43;98333.47;;;22.93
60936;BMP280;46804;51.786;19.520;2022-08-01T19:01:44;98330.53;;;22.98
60936;BMP280;46804;51.786;19.520;2022-08-01T19:05:45;98324.56;;;23.04
60936;BMP280;46804;51.786;19.520;2022-08-01T19:09:47;98330.09;;;22.96
60936;BMP280;46804;51.786;19.520;2022-08-01T19:13:48;98331.78;;;22.88
60936;BMP280;46804;51.786;19.520;2022-08-01T19:17:49;98342.00;;;22.83
60936;BMP280;46804;51.786;19.520;2022-08-01T19:21:50;98335.13;;;22.85
60936;BMP280;46804;51.786;19.520;2022-08-01T19:25:54;98334.63;;;22.83
60936;BMP280;46804;51.786;19.520;2022-08-01T19:29:55;98348.97;;;22.72
60936;BMP280;46804;51.786;19.520;2022-08-01T19:33:58;98338.31;;;22.67
60936;BMP280;46804;51.786;19.520;2022-08-01T19:37:59;98356.06;;;22.65
60936;BMP280;46804;51.786;19.520;2022-08-01T19:42:01;98363.41;;;22.64
60936;BMP280;46804;51.786;19.520;2022-08-01T19:46:03;98360.69;;;22.64
60936;BMP280;46804;51.786;19.520;2022-08-01T19:50:04;98358.63;;;22.61
60936;BMP280;46804;51.786;19.520;2022-08-01T19:54:09;98363.28;;;22.61
60936;BMP280;46804;51.786;19.520;2022-08-01T19:58:10;98365.25;;;22.52
60936;BMP280;46804;51.786;19.520;2022-08-01T20:02:16;98354.28;;;22.48
60936;BMP280;46804;51.786;19.520;2022-08-01T20:06:17;98360.75;;;22.36
60936;BMP280;46804;51.786;19.520;2022-08-01T20:10:19;98349.81;;;22.32
60936;BMP280;46804;51.786;19.520;2022-08-01T20:14:21;98342.41;;;22.21
60936;BMP280;46804;51.786;19.520;2022-08-01T20:18:23;98336.53;;;22.19
60936;BMP280;46804;51.786;19.520;2022-08-01T20:22:26;98330.13;;;22.23
60936;BMP280;46804;51.786;19.520;2022-08-01T20:26:29;98329.97;;;22.20
60936;BMP280;46804;51.786;19.520;2022-08-01T20:30:30;98323.63;;;22.16
60936;BMP280;46804;51.786;19.520;2022-08-01T20:34:34;98330.06;;;22.03
60936;BMP280;46804;51.786;19.520;2022-08-01T20:38:40;98333.88;;;21.82
60936;BMP280;46804;51.786;19.520;2022-08-01T20:42:42;98337.00;;;21.64
60936;BMP280;46804;51.786;19.520;2022-08-01T20:46:43;98324.28;;;21.64
60936;BMP280;46804;51.786;19.520;2022-08-01T20:50:48;98320.94;;;21.59
60936;BMP280;46804;51.786;19.520;2022-08-01T20:55:07;98327.72;;;21.45
60936;BMP280;46804;51.786;19.520;2022-08-01T21:03:24;98339.44;;;21.11
60936;BMP280;46804;51.786;19.520;2022-08-01T21:07:27;98331.03;;;21.05
60936;BMP280;46804;51.786;19.520;2022-08-01T21:11:37;98338.25;;;20.84
60936;BMP280;46804;51.786;19.520;2022-08-01T21:15:47;98333.47;;;20.81
60936;BMP280;46804;51.786;19.520;2022-08-01T21:19:50;98326.81;;;20.78
60936;BMP280;46804;51.786;19.520;2022-08-01T21:23:59;98329.88;;;20.60
60936;BMP280;46804;51.786;19.520;2022-08-01T21:28:04;98336.22;;;20.56
60936;BMP280;46804;51.786;19.520;2022-08-01T21:32:06;98324.75;;;20.50
60936;BMP280;46804;51.786;19.520;2022-08-01T21:36:16;98330.16;;;20.50
60936;BMP280;46804;51.786;19.520;2022-08-01T21:40:19;98324.13;;;20.53
60936;BMP280;46804;51.786;19.520;2022-08-01T21:44:23;98338.13;;;20.39
60936;BMP280;46804;51.786;19.520;2022-08-01T21:48:24;98339.56;;;20.44
60936;BMP280;46804;51.786;19.520;2022-08-01T21:52:25;98336.38;;;20.42
60936;BMP280;46804;51.786;19.520;2022-08-01T21:56:31;98340.50;;;20.40
60936;BMP280;46804;51.786;19.520;2022-08-01T22:00:35;98342.88;;;20.33
60936;BMP280;46804;51.786;19.520;2022-08-01T22:04:41;98352.72;;;20.29
60936;BMP280;46804;51.786;19.520;2022-08-01T22:08:50;98355.91;;;20.31
60936;BMP280;46804;51.786;19.520;2022-08-01T22:12:51;98349.72;;;20.22
60936;BMP280;46804;51.786;19.520;2022-08-01T22:16:52;98345.13;;;20.14
60936;BMP280;46804;51.786;19.520;2022-08-01T22:20:54;98342.09;;;20.08
60936;BMP280;46804;51.786;19.520;2022-08-01T22:24:55;98340.97;;;20.00
60936;BMP280;46804;51.786;19.520;2022-08-01T22:28:57;98350.81;;;19.96
60936;BMP280;46804;51.786;19.520;2022-08-01T22:32:58;98354.31;;;19.88
60936;BMP280;46804;51.786;19.520;2022-08-01T22:36:59;98353.97;;;19.81
60936;BMP280;46804;51.786;19.520;2022-08-01T22:41:05;98360.75;;;19.71
60936;BMP280;46804;51.786;19.520;2022-08-01T22:49:39;98357.31;;;19.48
60936;BMP280;46804;51.786;19.520;2022-08-01T22:54:01;98366.19;;;19.40
60936;BMP280;46804;51.786;19.520;2022-08-01T22:58:03;98359.50;;;19.30
60936;BMP280;46804;51.786;19.520;2022-08-01T23:02:05;98362.63;;;19.23
60936;BMP280;46804;51.786;19.520;2022-08-01T23:06:20;98364.66;;;19.18
60936;BMP280;46804;51.786;19.520;2022-08-01T23:10:24;98358.44;;;19.09
60936;BMP280;46804;51.786;19.520;2022-08-01T23:14:25;98370.16;;;19.05
60936;BMP280;46804;51.786;19.520;2022-08-01T23:18:27;98365.53;;;18.97
60936;BMP280;46804;51.786;19.520;2022-08-01T23:22:30;98365.53;;;18.97
60936;BMP280;46804;51.786;19.520;2022-08-01T23:26:31;98366.22;;;18.89
60936;BMP280;46804;51.786;19.520;2022-08-01T23:30:33;98356.53;;;18.88
60936;BMP280;46804;51.786;19.520;2022-08-01T23:34:34;98367.94;;;18.85